sensor_id;sensor_type;location;lat;lon;timestamp;pressure;altitude;pressure_sealevel;temperature;humidity
35918;BME280;22011;59.912;30.300;2023-10-31T00:00:28;100844.69;;;3.74;62.24
35918;BME280;22011;59.912;30.300;2023-10-31T00:02:55;100850.06;;;3.73;62.03
35918;BME280;22011;59.912;30.300;2023-10-31T00:05:23;100838.44;;;3.75;61.68
35918;BME280;22011;59.912;30.300;2023-10-31T00:07:50;100837.25;;;3.79;60.98
35918;BME280;22011;59.912;30.300;2023-10-31T00:10:18;100830.91;;;3.82;61.17
35918;BME280;22011;59.912;30.300;2023-10-31T00:12:46;100831.03;;;3.80;61.23
35918;BME280;22011;59.912;30.300;2023-10-31T00:15:14;100836.19;;;3.82;60.42
35918;BME280;22011;59.912;30.300;2023-10-31T00:17:43;100837.50;;;3.87;60.67
35918;BME280;22011;59.912;30.300;2023-10-31T00:20:10;100834.97;;;3.86;60.07
35918;BME280;22011;59.912;30.300;2023-10-31T00:22:38;100841.09;;;3.86;60.04
35918;BME280;22011;59.912;30.300;2023-10-31T00:25:06;100856.78;;;3.88;59.78
35918;BME280;22011;59.912;30.300;2023-10-31T00:27:34;100865.41;;;3.90;59.81
35918;BME280;22011;59.912;30.300;2023-10-31T00:30:02;100874.03;;;3.92;60.14
35918;BME280;22011;59.912;30.300;2023-10-31T00:32:29;100883.16;;;3.88;60.12
35918;BME280;22011;59.912;30.300;2023-10-31T00:34:59;100890.09;;;3.89;60.74
35918;BME280;22011;59.912;30.300;2023-10-31T00:37:27;100891.16;;;3.86;60.45
35918;BME280;22011;59.912;30.300;2023-10-31T00:39:54;100890.94;;;3.89;59.77
35918;BME280;22011;59.912;30.300;2023-10-31T00:42:22;100897.75;;;3.92;59.67
35918;BME280;22011;59.912;30.300;2023-10-31T00:44:50;100898.72;;;3.91;60.00
35918;BME280;22011;59.912;30.300;2023-10-31T00:47:17;100889.13;;;3.90;60.20
35918;BME280;22011;59.912;30.300;2023-10-31T00:49:45;100876.06;;;3.88;60.59
35918;BME280;22011;59.912;30.300;2023-10-31T00:52:14;100872.38;;;3.91;59.98
35918;BME280;22011;59.912;30.300;2023-10-31T00:54:41;100875.84;;;3.91;59.80
35918;BME280;22011;59.912;30.300;2023-10-31T00:57:09;100873.91;;;3.93;59.50
35918;BME280;22011;59.912;30.300;2023-10-31T00:59:37;100888.78;;;3.94;59.42
35918;BME280;22011;59.912;30.300;2023-10-31T01:02:05;100892.00;;;3.76;60.32
35918;BME280;22011;59.912;30.300;2023-10-31T01:04:33;100891.88;;;3.66;60.31
35918;BME280;22011;59.912;30.300;2023-10-31T01:07:00;100883.34;;;3.63;60.63
35918;BME280;22011;59.912;30.300;2023-10-31T01:09:29;100878.81;;;3.76;60.64
35918;BME280;22011;59.912;30.300;2023-10-31T01:11:57;100875.47;;;3.85;59.99
35918;BME280;22011;59.912;30.300;2023-10-31T01:14:25;100877.88;;;3.88;60.09
35918;BME280;22011;59.912;30.300;2023-10-31T01:16:52;100873.09;;;3.93;59.75
35918;BME280;22011;59.912;30.300;2023-10-31T01:19:20;100872.13;;;3.94;59.14
35918;BME280;22011;59.912;30.300;2023-10-31T01:21:48;100880.75;;;3.96;59.41
35918;BME280;22011;59.912;30.300;2023-10-31T01:24:16;100893.09;;;3.96;59.39
35918;BME280;22011;59.912;30.300;2023-10-31T01:26:45;100892.00;;;3.98;59.63
35918;BME280;22011;59.912;30.300;2023-10-31T01:29:12;100897.16;;;4.00;59.08
35918;BME280;22011;59.912;30.300;2023-10-31T01:31:41;100887.59;;;3.99;59.67
35918;BME280;22011;59.912;30.300;2023-10-31T01:34:08;100894.88;;;3.95;60.09
35918;BME280;22011;59.912;30.300;2023-10-31T01:36:36;100890.69;;;3.92;60.08
35918;BME280;22011;59.912;30.300;2023-10-31T01:39:04;100889.72;;;3.93;59.83
35918;BME280;22011;59.912;30.300;2023-10-31T01:41:31;100892.13;;;3.97;60.04
35918;BME280;22011;59.912;30.300;2023-10-31T01:44:02;100870.69;;;4.01;59.76
35918;BME280;22011;59.912;30.300;2023-10-31T01:46:29;100867.44;;;3.98;59.35
35918;BME280;22011;59.912;30.300;2023-10-31T01:48:57;100860.75;;;3.93;59.66
35918;BME280;22011;59.912;30.300;2023-10-31T01:51:25;100879.31;;;3.92;59.72
35918;BME280;22011;59.912;30.300;2023-10-31T01:53:53;100881.47;;;3.87;60.04
35918;BME280;22011;59.912;30.300;2023-10-31T01:56:22;100870.19;;;3.85;59.70
35918;BME280;22011;59.912;30.300;2023-10-31T01:58:50;100850.19;;;3.82;59.85
35918;BME280;22011;59.912;30.300;2023-10-31T02:01:19;100832.34;;;3.86;60.01
35918;BME280;22011;59.912;30.300;2023-10-31T02:03:48;100823.00;;;3.82;59.87
35918;BME280;22011;59.912;30.300;2023-10-31T02:06:15;100814.63;;;3.77;60.17
35918;BME280;22011;59.912;30.300;2023-10-31T02:08:43;100833.53;;;3.71;60.20
35918;BME280;22011;59.912;30.300;2023-10-31T02:11:11;100843.47;;;3.67;60.42
35918;BME280;22011;59.912;30.300;2023-10-31T02:13:39;100851.75;;;3.63;60.49
35918;BME280;22011;59.912;30.300;2023-10-31T02:16:07;100860.59;;;3.61;60.58
35918;BME280;22011;59.912;30.300;2023-10-31T02:18:36;100862.16;;;3.64;60.56
35918;BME280;22011;59.912;30.300;2023-10-31T02:21:04;100865.03;;;3.61;60.06
35918;BME280;22011;59.912;30.300;2023-10-31T02:23:33;100877.38;;;3.60;60.74
35918;BME280;22011;59.912;30.300;2023-10-31T02:26:02;100874.25;;;3.55;60.72
35918;BME280;22011;59.912;30.300;2023-10-31T02:28:32;100876.28;;;3.52;61.37
35918;BME280;22011;59.912;30.300;2023-10-31T02:31:00;100877.13;;;3.52;60.96
35918;BME280;22011;59.912;30.300;2023-10-31T02:33:27;100876.28;;;3.52;60.91
35918;BME280;22011;59.912;30.300;2023-10-31T02:35:55;100876.38;;;3.50;61.27
35918;BME280;22011;59.912;30.300;2023-10-31T02:38:23;100876.75;;;3.46;61.41
35918;BME280;22011;59.912;30.300;2023-10-31T02:40:53;100862.72;;;3.45;61.91
35918;BME280;22011;59.912;30.300;2023-10-31T02:43:21;100881.28;;;3.44;61.79
35918;BME280;22011;59.912;30.300;2023-10-31T02:45:48;100903.44;;;3.41;61.91
35918;BME280;22011;59.912;30.300;2023-10-31T02:48:16;100913.25;;;3.39;62.14
35918;BME280;22011;59.912;30.300;2023-10-31T02:50:44;100915.16;;;3.37;62.50
35918;BME280;22011;59.912;30.300;2023-10-31T02:53:11;100919.69;;;3.35;62.24
35918;BME280;22011;59.912;30.300;2023-10-31T02:55:39;100928.53;;;3.34;62.99
35918;BME280;22011;59.912;30.300;2023-10-31T02:58:08;100934.78;;;3.33;62.99
35918;BME280;22011;59.912;30.300;2023-10-31T03:00:35;100942.28;;;3.26;62.43
35918;BME280;22011;59.912;30.300;2023-10-31T03:03:03;100958.19;;;3.25;62.64
35918;BME280;22011;59.912;30.300;2023-10-31T03:05:31;100964.53;;;3.22;62.92
35918;BME280;22011;59.912;30.300;2023-10-31T03:07:58;100959.50;;;3.19;63.09
35918;BME280;22011;59.912;30.300;2023-10-31T03:10:26;100962.22;;;3.18;63.18
35918;BME280;22011;59.912;30.300;2023-10-31T03:12:54;100967.25;;;3.10;62.87
35918;BME280;22011;59.912;30.300;2023-10-31T03:15:23;100969.16;;;3.08;63.16
35918;BME280;22011;59.912;30.300;2023-10-31T03:17:50;100973.91;;;3.03;63.19
35918;BME280;22011;59.912;30.300;2023-10-31T03:20:18;100966.75;;;3.05;63.80
35918;BME280;22011;59.912;30.300;2023-10-31T03:22:46;100975.72;;;3.02;63.91
35918;BME280;22011;59.912;30.300;2023-10-31T03:25:13;100971.41;;;3.01;63.89
35918;BME280;22011;59.912;30.300;2023-10-31T03:27:41;100972.13;;;3.03;63.71
35918;BME280;22011;59.912;30.300;2023-10-31T03:30:09;100963.28;;;3.04;63.25
35918;BME280;22011;59.912;30.300;2023-10-31T03:32:39;100956.31;;;3.03;63.37
35918;BME280;22011;59.912;30.300;2023-10-31T03:35:07;100954.97;;;2.98;63.49
35918;BME280;22011;59.912;30.300;2023-10-31T03:37:35;100949.22;;;2.92;63.53
35918;BME280;22011;59.912;30.300;2023-10-31T03:40:08;100945.75;;;2.92;63.75
35918;BME280;22011;59.912;30.300;2023-10-31T03:42:36;100946.81;;;2.89;63.83
35918;BME280;22011;59.912;30.300;2023-10-31T03:45:04;100956.81;;;2.84;63.79
35918;BME280;22011;59.912;30.300;2023-10-31T03:47:32;100951.91;;;2.80;63.64
35918;BME280;22011;59.912;30.300;2023-10-31T03:50:01;100944.94;;;2.79;64.14
35918;BME280;22011;59.912;30.300;2023-10-31T03:52:29;100934.25;;;2.69;64.01
35918;BME280;22011;59.912;30.300;2023-10-31T03:54:56;100936.38;;;2.64;64.32
35918;BME280;22011;59.912;30.300;2023-10-31T03:57:24;100944.47;;;2.61;64.30
35918;BME280;22011;59.912;30.300;2023-10-31T03:59:53;100954.47;;;2.56;64.17
35918;BME280;22011;59.912;30.300;2023-10-31T04:02:20;100956.59;;;2.51;64.51
35918;BME280;22011;59.912;30.300;2023-10-31T04:04:48;100940.41;;;2.44;64.68
35918;BME280;22011;59.912;30.300;2023-10-31T04:07:17;100927.38;;;2.43;64.72
35918;BME280;22011;59.912;30.300;2023-10-31T04:09:46;100928.53;;;2.39;64.81
35918;BME280;22011;59.912;30.300;2023-10-31T04:12:14;100947.16;;;2.36;64.83
35918;BME280;22011;59.912;30.300;2023-10-31T04:14:42;100943.06;;;2.32;64.86
35918;BME280;22011;59.912;30.300;2023-10-31T04:17:09;100945.69;;;2.32;64.76
35918;BME280;22011;59.912;30.300;2023-10-31T04:19:37;100953.69;;;2.30;64.86
35918;BME280;22011;59.912;30.300;2023-10-31T04:22:04;100952.44;;;2.23;64.70
35918;BME280;22011;59.912;30.300;2023-10-31T04:24:33;100952.22;;;2.26;65.10
35918;BME280;22011;59.912;30.300;2023-10-31T04:27:01;100950.03;;;2.20;64.72
35918;BME280;22011;59.912;30.300;2023-10-31T04:29:29;100943.94;;;2.19;64.70
35918;BME280;22011;59.912;30.300;2023-10-31T04:31:56;100954.56;;;2.18;64.72
35918;BME280;22011;59.912;30.300;2023-10-31T04:34:24;100966.84;;;2.17;64.72
35918;BME280;22011;59.912;30.300;2023-10-31T04:36:51;100969.69;;;2.14;64.69
35918;BME280;22011;59.912;30.300;2023-10-31T04:39:19;100968.47;;;2.07;64.76
35918;BME280;22011;59.912;30.300;2023-10-31T04:41:48;100963.41;;;2.04;64.86
35918;BME280;22011;59.912;30.300;2023-10-31T04:44:15;100979.59;;;1.98;65.01
35918;BME280;22011;59.912;30.300;2023-10-31T04:46:43;100981.28;;;1.99;65.17
35918;BME280;22011;59.912;30.300;2023-10-31T04:49:11;100983.59;;;2.04;65.27
35918;BME280;22011;59.912;30.300;2023-10-31T04:51:38;100982.03;;;2.01;65.14
35918;BME280;22011;59.912;30.300;2023-10-31T04:54:06;100981.28;;;1.99;65.05
35918;BME280;22011;59.912;30.300;2023-10-31T04:56:34;100969.84;;;2.00;65.07
35918;BME280;22011;59.912;30.300;2023-10-31T04:59:03;100961.75;;;2.03;65.18
35918;BME280;22011;59.912;30.300;2023-10-31T05:01:31;100959.00;;;2.05;65.14
35918;BME280;22011;59.912;30.300;2023-10-31T05:03:58;100966.03;;;2.04;65.03
35918;BME280;22011;59.912;30.300;2023-10-31T05:06:27;100975.63;;;2.05;64.79
35918;BME280;22011;59.912;30.300;2023-10-31T05:08:54;100969.63;;;1.90;65.02
35918;BME280;22011;59.912;30.300;2023-10-31T05:11:22;100972.34;;;1.89;65.14
35918;BME280;22011;59.912;30.300;2023-10-31T05:13:50;100980.84;;;1.80;65.20
35918;BME280;22011;59.912;30.300;2023-10-31T05:16:19;100979.78;;;1.70;65.81
35918;BME280;22011;59.912;30.300;2023-10-31T05:18:46;100970.94;;;1.58;65.99
35918;BME280;22011;59.912;30.300;2023-10-31T05:21:18;100967.16;;;1.62;66.55
35918;BME280;22011;59.912;30.300;2023-10-31T05:23:46;100975.34;;;1.57;66.47
35918;BME280;22011;59.912;30.300;2023-10-31T05:26:14;100984.81;;;1.60;66.22
35918;BME280;22011;59.912;30.300;2023-10-31T05:28:42;100991.44;;;1.66;66.44
35918;BME280;22011;59.912;30.300;2023-10-31T05:31:09;101001.00;;;1.67;66.18
35918;BME280;22011;59.912;30.300;2023-10-31T05:33:39;101012.78;;;1.74;66.04
35918;BME280;22011;59.912;30.300;2023-10-31T05:36:17;101020.06;;;1.83;66.64
35918;BME280;22011;59.912;30.300;2023-10-31T05:38:45;101028.75;;;1.71;65.84
35918;BME280;22011;59.912;30.300;2023-10-31T05:41:13;101022.97;;;1.66;65.61
35918;BME280;22011;59.912;30.300;2023-10-31T05:43:41;101023.16;;;1.62;66.06
35918;BME280;22011;59.912;30.300;2023-10-31T05:46:08;101040.63;;;1.63;66.22
35918;BME280;22011;59.912;30.300;2023-10-31T05:48:41;101042.84;;;1.70;65.84
35918;BME280;22011;59.912;30.300;2023-10-31T05:51:12;101045.16;;;1.74;65.92
35918;BME280;22011;59.912;30.300;2023-10-31T05:53:42;101037.97;;;1.63;65.39
35918;BME280;22011;59.912;30.300;2023-10-31T05:56:11;101051.22;;;1.62;65.74
35918;BME280;22011;59.912;30.300;2023-10-31T05:58:40;101050.78;;;1.55;65.73
35918;BME280;22011;59.912;30.300;2023-10-31T06:01:08;101049.84;;;1.56;66.01
35918;BME280;22011;59.912;30.300;2023-10-31T06:03:36;101064.56;;;1.59;66.03
35918;BME280;22011;59.912;30.300;2023-10-31T06:06:06;101066.97;;;1.62;66.06
35918;BME280;22011;59.912;30.300;2023-10-31T06:08:34;101062.03;;;1.57;65.82
35918;BME280;22011;59.912;30.300;2023-10-31T06:11:03;101066.13;;;1.61;65.97
35918;BME280;22011;59.912;30.300;2023-10-31T06:13:31;101067.91;;;1.61;65.95
35918;BME280;22011;59.912;30.300;2023-10-31T06:16:00;101059.44;;;1.70;65.79
35918;BME280;22011;59.912;30.300;2023-10-31T06:18:28;101048.72;;;1.73;65.96
35918;BME280;22011;59.912;30.300;2023-10-31T06:20:56;101036.34;;;1.75;65.37
35918;BME280;22011;59.912;30.300;2023-10-31T06:23:25;101042.53;;;1.74;65.69
35918;BME280;22011;59.912;30.300;2023-10-31T06:25:52;101047.97;;;1.71;65.72
35918;BME280;22011;59.912;30.300;2023-10-31T06:28:20;101038.31;;;1.72;65.52
35918;BME280;22011;59.912;30.300;2023-10-31T06:30:48;101048.09;;;1.70;65.54
35918;BME280;22011;59.912;30.300;2023-10-31T06:33:15;101046.72;;;1.64;65.49
35918;BME280;22011;59.912;30.300;2023-10-31T06:35:43;101041.56;;;1.62;65.72
35918;BME280;22011;59.912;30.300;2023-10-31T06:38:10;101033.56;;;1.64;65.71
35918;BME280;22011;59.912;30.300;2023-10-31T06:40:40;101026.97;;;1.71;65.75
35918;BME280;22011;59.912;30.300;2023-10-31T06:43:08;101028.75;;;1.71;65.56
35918;BME280;22011;59.912;30.300;2023-10-31T06:45:36;101027.06;;;1.70;65.59
35918;BME280;22011;59.912;30.300;2023-10-31T06:48:04;101027.06;;;1.70;65.90
35918;BME280;22011;59.912;30.300;2023-10-31T06:50:33;101023.94;;;1.77;65.79
35918;BME280;22011;59.912;30.300;2023-10-31T06:53:00;101025.53;;;1.80;65.25
35918;BME280;22011;59.912;30.300;2023-10-31T06:55:29;101010.06;;;1.75;65.39
35918;BME280;22011;59.912;30.300;2023-10-31T06:57:58;101002.50;;;1.83;65.35
35918;BME280;22011;59.912;30.300;2023-10-31T07:00:26;101007.34;;;1.89;65.36
35918;BME280;22011;59.912;30.300;2023-10-31T07:02:54;100989.50;;;1.94;65.26
35918;BME280;22011;59.912;30.300;2023-10-31T07:05:22;101005.88;;;1.98;65.00
35918;BME280;22011;59.912;30.300;2023-10-31T07:07:49;100994.97;;;2.04;65.00
35918;BME280;22011;59.912;30.300;2023-10-31T07:10:17;100984.63;;;2.14;64.96
35918;BME280;22011;59.912;30.300;2023-10-31T07:12:44;100976.84;;;2.12;64.59
35918;BME280;22011;59.912;30.300;2023-10-31T07:15:13;100971.38;;;2.15;64.59
35918;BME280;22011;59.912;30.300;2023-10-31T07:17:41;100965.06;;;2.18;64.73
35918;BME280;22011;59.912;30.300;2023-10-31T07:20:09;100957.38;;;2.27;64.51
35918;BME280;22011;59.912;30.300;2023-10-31T07:22:37;100971.78;;;2.35;64.32
35918;BME280;22011;59.912;30.300;2023-10-31T07:25:06;100969.88;;;2.37;64.01
35918;BME280;22011;59.912;30.300;2023-10-31T07:27:34;100969.66;;;2.40;64.04
35918;BME280;22011;59.912;30.300;2023-10-31T07:30:02;100962.28;;;2.45;63.88
35918;BME280;22011;59.912;30.300;2023-10-31T07:32:31;100960.91;;;2.52;63.86
35918;BME280;22011;59.912;30.300;2023-10-31T07:34:59;100951.66;;;2.46;63.69
35918;BME280;22011;59.912;30.300;2023-10-31T07:37:26;100964.59;;;2.49;63.33
35918;BME280;22011;59.912;30.300;2023-10-31T07:39:54;100982.09;;;2.38;63.49
35918;BME280;22011;59.912;30.300;2023-10-31T07:42:22;100980.63;;;2.34;63.95
35918;BME280;22011;59.912;30.300;2023-10-31T07:44:49;100979.88;;;2.32;63.88
35918;BME280;22011;59.912;30.300;2023-10-31T07:47:17;100952.44;;;2.36;64.05
35918;BME280;22011;59.912;30.300;2023-10-31T07:49:46;100939.28;;;2.36;64.05
35918;BME280;22011;59.912;30.300;2023-10-31T07:52:14;100945.91;;;2.28;63.85
35918;BME280;22011;59.912;30.300;2023-10-31T07:54:42;100943.06;;;2.32;64.11
35918;BME280;22011;59.912;30.300;2023-10-31T07:57:10;100955.06;;;2.36;64.12
35918;BME280;22011;59.912;30.300;2023-10-31T07:59:37;100952.44;;;2.36;64.23
35918;BME280;22011;59.912;30.300;2023-10-31T08:02:05;100969.88;;;2.37;63.90
35918;BME280;22011;59.912;30.300;2023-10-31T08:04:33;100974.94;;;2.40;64.20
35918;BME280;22011;59.912;30.300;2023-10-31T08:07:02;100979.03;;;2.44;64.32
35918;BME280;22011;59.912;30.300;2023-10-31T08:09:29;100972.81;;;2.45;63.77
35918;BME280;22011;59.912;30.300;2023-10-31T08:11:57;100984.81;;;2.49;63.96
35918;BME280;22011;59.912;30.300;2023-10-31T08:14:25;100991.34;;;2.43;63.99
35918;BME280;22011;59.912;30.300;2023-10-31T08:16:52;100992.91;;;2.46;63.79
35918;BME280;22011;59.912;30.300;2023-10-31T08:19:20;100997.00;;;2.50;63.66
35918;BME280;22011;59.912;30.300;2023-10-31T08:21:47;100986.06;;;2.56;63.73
35918;BME280;22011;59.912;30.300;2023-10-31T08:24:16;101001.91;;;2.67;63.78
35918;BME280;22011;59.912;30.300;2023-10-31T08:26:44;101000.53;;;2.74;63.26
35918;BME280;22011;59.912;30.300;2023-10-31T08:29:12;100993.25;;;2.78;63.62
35918;BME280;22011;59.912;30.300;2023-10-31T08:31:40;100991.03;;;2.84;63.78
35918;BME280;22011;59.912;30.300;2023-10-31T08:34:08;101002.06;;;2.89;63.16
35918;BME280;22011;59.912;30.300;2023-10-31T08:36:36;100998.38;;;2.92;62.94
35918;BME280;22011;59.912;30.300;2023-10-31T08:39:05;100995.00;;;2.90;62.81
35918;BME280;22011;59.912;30.300;2023-10-31T08:41:34;100991.53;;;2.89;63.03
35918;BME280;22011;59.912;30.300;2023-10-31T08:44:03;100997.22;;;2.96;63.12
35918;BME280;22011;59.912;30.300;2023-10-31T08:46:31;100987.19;;;3.01;63.24
35918;BME280;22011;59.912;30.300;2023-10-31T08:48:58;101005.06;;;3.09;62.84
35918;BME280;22011;59.912;30.300;2023-10-31T08:51:26;100994.91;;;3.15;62.59
35918;BME280;22011;59.912;30.300;2023-10-31T08:53:54;100998.25;;;3.17;62.26
35918;BME280;22011;59.912;30.300;2023-10-31T08:56:21;100992.03;;;3.18;62.55
35918;BME280;22011;59.912;30.300;2023-10-31T08:58:50;100995.06;;;3.25;62.57
35918;BME280;22011;59.912;30.300;2023-10-31T09:01:18;100999.72;;;3.21;62.37
35918;BME280;22011;59.912;30.300;2023-10-31T09:03:46;100995.50;;;3.19;62.67
35918;BME280;22011;59.912;30.300;2023-10-31T09:06:14;101000.03;;;3.17;62.57
35918;BME280;22011;59.912;30.300;2023-10-31T09:08:41;101003.63;;;3.16;62.57
35918;BME280;22011;59.912;30.300;2023-10-31T09:11:09;100981.63;;;3.17;62.58
35918;BME280;22011;59.912;30.300;2023-10-31T09:13:36;100975.41;;;3.18;62.60
35918;BME280;22011;59.912;30.300;2023-10-31T09:16:08;100966.81;;;3.27;62.95
35918;BME280;22011;59.912;30.300;2023-10-31T09:18:36;100960.25;;;3.33;62.69
35918;BME280;22011;59.912;30.300;2023-10-31T09:21:04;100961.59;;;3.38;62.27
35918;BME280;22011;59.912;30.300;2023-10-31T09:23:31;100958.25;;;3.36;62.00
35918;BME280;22011;59.912;30.300;2023-10-31T09:25:59;100965.41;;;3.34;62.01
35918;BME280;22011;59.912;30.300;2023-10-31T09:28:27;100961.56;;;3.27;62.11
35918;BME280;22011;59.912;30.300;2023-10-31T09:30:55;100955.69;;;3.23;62.36
35918;BME280;22011;59.912;30.300;2023-10-31T09:33:24;100947.78;;;3.23;62.41
35918;BME280;22011;59.912;30.300;2023-10-31T09:35:51;100953.38;;;3.19;62.37
35918;BME280;22011;59.912;30.300;2023-10-31T09:38:19;100953.28;;;3.20;62.81
35918;BME280;22011;59.912;30.300;2023-10-31T09:40:46;100957.47;;;3.23;62.50
35918;BME280;22011;59.912;30.300;2023-10-31T09:43:14;100959.81;;;3.15;62.46
35918;BME280;22011;59.912;30.300;2023-10-31T09:45:42;100952.19;;;3.12;62.63
35918;BME280;22011;59.912;30.300;2023-10-31T09:48:11;100941.75;;;3.10;62.85
35918;BME280;22011;59.912;30.300;2023-10-31T09:50:41;100944.75;;;3.17;63.01
35918;BME280;22011;59.912;30.300;2023-10-31T09:53:09;100945.09;;;3.12;63.15
35918;BME280;22011;59.912;30.300;2023-10-31T09:55:38;100936.03;;;3.16;62.83
35918;BME280;22011;59.912;30.300;2023-10-31T09:58:06;100934.94;;;3.08;62.80
35918;BME280;22011;59.912;30.300;2023-10-31T10:00:33;100925.47;;;3.05;63.13
35918;BME280;22011;59.912;30.300;2023-10-31T10:03:03;100930.03;;;3.14;63.41
35918;BME280;22011;59.912;30.300;2023-10-31T10:05:31;100935.91;;;3.18;63.00
35918;BME280;22011;59.912;30.300;2023-10-31T10:08:00;100917.25;;;3.21;63.36
35918;BME280;22011;59.912;30.300;2023-10-31T10:10:28;100924.75;;;3.14;63.35
35918;BME280;22011;59.912;30.300;2023-10-31T10:12:57;100921.16;;;3.15;63.21
35918;BME280;22011;59.912;30.300;2023-10-31T10:15:29;100916.75;;;3.16;63.22
35918;BME280;22011;59.912;30.300;2023-10-31T10:17:56;100912.19;;;3.07;63.11
35918;BME280;22011;59.912;30.300;2023-10-31T10:20:24;100921.78;;;3.08;63.25
35918;BME280;22011;59.912;30.300;2023-10-31T10:22:51;100917.59;;;3.16;63.34
35918;BME280;22011;59.912;30.300;2023-10-31T10:25:20;100921.09;;;3.28;62.75
35918;BME280;22011;59.912;30.300;2023-10-31T10:27:48;100923.00;;;3.26;62.86
35918;BME280;22011;59.912;30.300;2023-10-31T10:30:15;100920.09;;;3.18;62.81
35918;BME280;22011;59.912;30.300;2023-10-31T10:32:43;100914.00;;;3.17;63.18
35918;BME280;22011;59.912;30.300;2023-10-31T10:35:11;100901.06;;;3.14;63.80
35918;BME280;22011;59.912;30.300;2023-10-31T10:37:38;100899.88;;;3.18;64.27
35918;BME280;22011;59.912;30.300;2023-10-31T10:40:08;100901.94;;;3.26;65.32
35918;BME280;22011;59.912;30.300;2023-10-31T10:42:44;100908.06;;;3.26;66.72
35918;BME280;22011;59.912;30.300;2023-10-31T10:45:13;100912.69;;;3.12;67.41
35918;BME280;22011;59.912;30.300;2023-10-31T10:47:45;100911.13;;;3.09;67.59
35918;BME280;22011;59.912;30.300;2023-10-31T10:50:13;100900.44;;;3.00;67.96
35918;BME280;22011;59.912;30.300;2023-10-31T10:52:44;100900.44;;;3.00;68.63
35918;BME280;22011;59.912;30.300;2023-10-31T10:55:20;100894.34;;;2.99;68.42
35918;BME280;22011;59.912;30.300;2023-10-31T10:57:55;100898.09;;;3.08;68.87
35918;BME280;22011;59.912;30.300;2023-10-31T11:00:24;100905.47;;;3.03;68.23
35918;BME280;22011;59.912;30.300;2023-10-31T11:02:53;100906.53;;;3.00;68.03
35918;BME280;22011;59.912;30.300;2023-10-31T11:05:21;100903.78;;;3.02;67.71
35918;BME280;22011;59.912;30.300;2023-10-31T11:07:51;100892.69;;;3.09;68.51
35918;BME280;22011;59.912;30.300;2023-10-31T11:10:19;100889.47;;;3.06;68.11
35918;BME280;22011;59.912;30.300;2023-10-31T11:12:47;100890.91;;;3.10;67.90
35918;BME280;22011;59.912;30.300;2023-10-31T11:15:17;100883.38;;;3.16;67.70
35918;BME280;22011;59.912;30.300;2023-10-31T11:17:46;100886.00;;;3.16;67.49
35918;BME280;22011;59.912;30.300;2023-10-31T11:20:15;100881.78;;;3.14;67.65
35918;BME280;22011;59.912;30.300;2023-10-31T11:22:44;100880.50;;;3.08;67.59
35918;BME280;22011;59.912;30.300;2023-10-31T11:25:13;100878.47;;;3.12;67.30
35918;BME280;22011;59.912;30.300;2023-10-31T11:27:41;100874.16;;;3.11;67.44
35918;BME280;22011;59.912;30.300;2023-10-31T11:30:22;100860.50;;;3.17;67.98
35918;BME280;22011;59.912;30.300;2023-10-31T11:32:51;100861.78;;;3.00;68.02
35918;BME280;22011;59.912;30.300;2023-10-31T11:35:19;100849.25;;;3.04;68.61
35918;BME280;22011;59.912;30.300;2023-10-31T11:37:48;100845.31;;;3.09;68.47
35918;BME280;22011;59.912;30.300;2023-10-31T11:40:20;100845.44;;;3.08;67.75
35918;BME280;22011;59.912;30.300;2023-10-31T11:42:50;100858.44;;;2.98;68.14
35918;BME280;22011;59.912;30.300;2023-10-31T11:45:31;100859.31;;;3.10;69.06
35918;BME280;22011;59.912;30.300;2023-10-31T11:47:59;100859.78;;;3.04;68.58
35918;BME280;22011;59.912;30.300;2023-10-31T11:50:26;100856.06;;;3.06;68.03
35918;BME280;22011;59.912;30.300;2023-10-31T11:53:05;100846.88;;;3.23;68.72
35918;BME280;22011;59.912;30.300;2023-10-31T11:55:35;100852.16;;;3.12;68.20
35918;BME280;22011;59.912;30.300;2023-10-31T11:58:15;100851.66;;;3.18;68.82
35918;BME280;22011;59.912;30.300;2023-10-31T12:00:45;100858.72;;;3.06;68.30
35918;BME280;22011;59.912;30.300;2023-10-31T12:03:15;100852.16;;;3.12;68.57
35918;BME280;22011;59.912;30.300;2023-10-31T12:05:53;100856.47;;;3.24;68.78
35918;BME280;22011;59.912;30.300;2023-10-31T12:08:27;100847.69;;;3.12;68.57
35918;BME280;22011;59.912;30.300;2023-10-31T12:11:04;100845.91;;;3.13;69.11
35918;BME280;22011;59.912;30.300;2023-10-31T12:13:32;100844.44;;;2.98;68.75
35918;BME280;22011;59.912;30.300;2023-10-31T12:16:02;100841.69;;;2.99;69.01
35918;BME280;22011;59.912;30.300;2023-10-31T12:18:29;100844.91;;;2.91;68.90
35918;BME280;22011;59.912;30.300;2023-10-31T12:20:57;100838.91;;;2.89;69.14
35918;BME280;22011;59.912;30.300;2023-10-31T12:23:24;100831.97;;;2.88;69.05
35918;BME280;22011;59.912;30.300;2023-10-31T12:25:52;100827.16;;;2.82;68.88
35918;BME280;22011;59.912;30.300;2023-10-31T12:28:20;100829.41;;;2.76;69.69
35918;BME280;22011;59.912;30.300;2023-10-31T12:30:50;100829.06;;;2.80;69.34
35918;BME280;22011;59.912;30.300;2023-10-31T12:33:19;100833.16;;;2.84;69.12
35918;BME280;22011;59.912;30.300;2023-10-31T12:35:48;100832.69;;;2.90;69.01
35918;BME280;22011;59.912;30.300;2023-10-31T12:38:19;100817.88;;;3.01;69.19
35918;BME280;22011;59.912;30.300;2023-10-31T12:40:47;100829.25;;;3.01;68.88
35918;BME280;22011;59.912;30.300;2023-10-31T12:43:15;100815.63;;;3.07;68.78
35918;BME280;22011;59.912;30.300;2023-10-31T12:45:43;100812.28;;;3.05;68.73
35918;BME280;22011;59.912;30.300;2023-10-31T12:48:11;100802.13;;;3.12;68.69
35918;BME280;22011;59.912;30.300;2023-10-31T12:50:40;100795.41;;;3.19;68.73
35918;BME280;22011;59.912;30.300;2023-10-31T12:53:08;100801.28;;;3.22;68.51
35918;BME280;22011;59.912;30.300;2023-10-31T12:55:38;100807.25;;;3.24;68.67